Time;durP1;ratioP1;P1;durP2;ratioP2;P2;SDS_P1;SDS_P2;PMS_P1;PMS_P2;Temp;Humidity;BMP_temperature;BMP_pressure;BME280_temperature;BME280_humidity;BME280_pressure;Samples;Min_cycle;Max_cycle;Signal;HPM_P1;HPM_P2
2023/07/04 00:01:54;;;;;;;;;11.00;7.67;;;;;21.67;76.05;101196.78;5017891;28;45429;-79
2023/07/04 00:04:20;;;;;;;;;11.00;11.00;;;;;21.65;76.53;101196.84;5017476;28;50681;-78
2023/07/04 00:06:48;;;;;;;;;10.67;8.67;;;;;21.64;76.78;101200.47;5016263;28;45463;-78
2023/07/04 00:09:15;;;;;;;;;12.67;9.33;;;;;21.63;76.68;101204.09;5017434;28;45524;-78
2023/07/04 00:11:40;;;;;;;;;12.67;6.33;;;;;21.59;77.21;101188.97;5016878;28;45529;-78
2023/07/04 00:14:05;;;;;;;;;7.00;6.33;;;;;21.56;76.71;101194.41;5016736;28;74530;-78
2023/07/04 00:16:31;;;;;;;;;6.33;4.67;;;;;21.57;77.28;101203.34;5016583;28;61252;-79
2023/07/04 00:18:57;;;;;;;;;6.00;4.67;;;;;21.54;76.95;101192.72;5017734;28;45307;-80
2023/07/04 00:21:24;;;;;;;;;5.33;5.00;;;;;21.54;77.74;101204.34;5017629;28;45556;-78
2023/07/04 00:23:52;;;;;;;;;6.33;5.00;;;;;21.52;77.26;101198.13;5016386;28;47527;-78
2023/07/04 00:26:20;;;;;;;;;7.67;5.67;;;;;21.51;77.20;101208.91;5016873;28;45291;-78
2023/07/04 00:28:46;;;;;;;;;6.00;4.67;;;;;21.48;77.96;101203.63;5016394;28;45483;-78
2023/07/04 00:31:16;;;;;;;;;9.67;5.00;;;;;21.48;77.92;101204.50;5017491;28;45472;-78
2023/07/04 00:33:42;;;;;;;;;6.33;6.00;;;;;21.45;77.97;101213.53;5017437;28;47613;-78
2023/07/04 00:36:14;;;;;;;;;8.67;6.67;;;;;21.42;78.26;101204.69;5016818;28;45402;-78
2023/07/04 00:38:41;;;;;;;;;10.33;6.67;;;;;21.42;78.59;101212.75;5017299;28;45315;-78
2023/07/04 00:41:11;;;;;;;;;7.33;7.33;;;;;21.36;78.80;101199.47;5017182;28;45493;-78
2023/07/04 00:43:59;;;;;;;;;8.67;6.00;;;;;21.34;79.01;101201.31;5017122;28;46739;-79
2023/07/04 00:46:37;;;;;;;;;4.00;4.00;;;;;21.31;78.81;101202.31;5026529;28;45415;-78
2023/07/04 00:49:18;;;;;;;;;4.67;4.00;;;;;21.26;79.10;101201.50;5015942;28;45308;-78
2023/07/04 00:52:04;;;;;;;;;6.33;4.00;;;;;21.19;79.31;101199.91;5014575;28;46006;-77
2023/07/04 00:54:36;;;;;;;;;6.33;3.67;;;;;21.12;80.07;101201.00;5016902;28;47723;-78
2023/07/04 00:57:02;;;;;;;;;5.33;2.33;;;;;21.07;79.80;101202.91;4999633;28;46402;-77
2023/07/04 00:59:30;;;;;;;;;6.00;2.00;;;;;21.03;80.61;101201.22;5016608;28;45126;-78
2023/07/04 01:01:57;;;;;;;;;4.00;2.33;;;;;20.98;80.63;101197.78;5016120;28;45387;-78
2023/07/04 01:04:23;;;;;;;;;3.00;3.00;;;;;20.96;81.18;101199.63;5014577;28;71595;-78
2023/07/04 01:06:56;;;;;;;;;4.00;2.00;;;;;20.92;81.78;101206.88;5017082;28;45323;-78
2023/07/04 01:09:23;;;;;;;;;4.67;3.00;;;;;20.92;81.77;101207.75;5031822;28;45458;-77
2023/07/04 01:11:49;;;;;;;;;3.67;3.67;;;;;20.93;82.13;101209.53;5016955;28;45267;-78
2023/07/04 01:14:21;;;;;;;;;3.00;2.00;;;;;20.96;82.15;101210.38;5015475;28;46680;-78
2023/07/04 01:16:46;;;;;;;;;4.67;4.00;;;;;20.97;82.02;101207.63;5011710;28;45279;-78
2023/07/04 01:19:13;;;;;;;;;2.33;2.00;;;;;20.99;82.43;101218.38;5016665;28;45387;-79
2023/07/04 01:21:40;;;;;;;;;2.67;2.67;;;;;20.97;82.20;101218.38;5016756;28;45285;-78
2023/07/04 01:24:11;;;;;;;;;3.00;3.00;;;;;20.92;82.73;101210.44;5015592;28;46651;-79
2023/07/04 01:26:42;;;;;;;;;4.67;3.00;;;;;20.94;82.60;101213.09;5014794;28;45625;-78
2023/07/04 01:29:13;;;;;;;;;5.33;4.00;;;;;20.95;82.88;101222.03;5023495;28;45293;-77
2023/07/04 01:31:40;;;;;;;;;2.67;2.33;;;;;20.93;82.40;101217.59;5015610;28;45321;-78
2023/07/04 01:34:07;;;;;;;;;3.67;3.00;;;;;20.91;82.35;101214.06;4999082;28;47751;-79
2023/07/04 01:36:35;;;;;;;;;2.67;2.67;;;;;20.89;82.75;101226.63;5015561;28;66098;-78
2023/07/04 01:39:00;;;;;;;;;2.00;2.00;;;;;20.84;82.94;101225.00;5016355;28;45508;-78
2023/07/04 01:41:26;;;;;;;;;4.33;3.00;;;;;20.78;83.48;101225.16;5016724;28;45408;-78
2023/07/04 01:44:18;;;;;;;;;6.67;3.00;;;;;20.74;83.63;101232.38;5016049;28;47416;-78
2023/07/04 01:46:44;;;;;;;;;2.00;2.00;;;;;20.69;84.17;101228.06;5012275;28;45244;-78
2023/07/04 01:49:09;;;;;;;;;4.00;4.00;;;;;20.72;84.84;101234.25;5015995;28;45253;-79
2023/07/04 01:51:37;;;;;;;;;3.00;3.00;;;;;20.70;84.92;101225.31;5015812;28;57995;-78
2023/07/04 01:54:04;;;;;;;;;4.67;3.00;;;;;20.66;85.15;101220.94;5015772;28;46569;-77
2023/07/04 01:56:32;;;;;;;;;2.33;2.33;;;;;20.64;84.91;101221.00;5016307;28;45458;-79
2023/07/04 01:58:58;;;;;;;;;7.00;5.00;;;;;20.65;85.85;101214.69;5016357;28;45246;-79
2023/07/04 02:01:24;;;;;;;;;4.00;2.00;;;;;20.62;85.29;101214.78;5015419;28;61775;-78
2023/07/04 02:03:50;;;;;;;;;4.00;4.00;;;;;20.61;85.92;101214.81;5015821;28;46881;-78
2023/07/04 02:06:15;;;;;;;;;2.67;2.67;;;;;20.59;85.76;101209.50;5016225;28;45285;-79
2023/07/04 02:08:40;;;;;;;;;4.00;2.33;;;;;20.58;86.06;101217.59;5030252;28;63676;-77
2023/07/04 02:11:06;;;;;;;;;4.00;3.00;;;;;20.55;86.38;101220.31;5015346;28;62289;-78
2023/07/04 02:13:32;;;;;;;;;5.00;3.33;;;;;20.55;86.46;101218.53;5015737;28;47466;-79
2023/07/04 02:15:57;;;;;;;;;3.00;3.00;;;;;20.52;86.38;101209.69;5034438;28;45797;-78
2023/07/04 02:18:22;;;;;;;;;7.67;4.33;;;;;20.42;87.30;101212.53;5019324;28;49191;-78
2023/07/04 02:20:48;;;;;;;;;4.00;3.00;;;;;20.37;87.41;101206.41;5019755;28;45591;-77
2023/07/04 02:23:13;;;;;;;;;3.00;3.00;;;;;20.33;88.15;101204.72;5018811;28;50859;-78
2023/07/04 02:25:40;;;;;;;;;5.33;4.00;;;;;20.32;87.93;101202.06;5019276;28;45315;-78
2023/07/04 02:28:06;;;;;;;;;4.33;3.00;;;;;20.28;88.51;101198.56;5017124;28;45473;-78
2023/07/04 02:30:31;;;;;;;;;4.33;3.00;;;;;20.25;88.67;101201.34;5019425;28;45126;-77
2023/07/04 02:32:56;;;;;;;;;5.67;2.67;;;;;20.26;88.80;101199.53;5018175;28;67204;-78
2023/07/04 02:35:21;;;;;;;;;4.00;3.67;;;;;20.21;89.39;101188.91;5018666;28;63973;-78
2023/07/04 02:37:47;;;;;;;;;5.67;4.00;;;;;20.20;90.23;101187.16;5019070;28;45192;-78
2023/07/04 02:40:12;;;;;;;;;5.00;3.00;;;;;20.19;90.56;101201.47;5018174;28;61515;-78
2023/07/04 02:42:38;;;;;;;;;3.00;3.00;;;;;20.15;90.73;101181.00;5019274;28;47244;-78
2023/07/04 02:45:06;;;;;;;;;5.00;5.00;;;;;20.15;91.21;101189.06;5018706;28;57028;-78
2023/07/04 02:47:32;;;;;;;;;6.00;3.00;;;;;20.12;90.88;101184.63;5017811;28;45508;-77
2023/07/04 02:49:57;;;;;;;;;4.67;4.00;;;;;20.09;92.10;101183.84;5019139;28;45362;-78
2023/07/04 02:52:24;;;;;;;;;4.67;4.67;;;;;20.04;91.96;101186.63;5018125;28;67434;-78
2023/07/04 02:54:50;;;;;;;;;5.00;3.00;;;;;20.02;91.89;101188.44;5019017;28;45370;-78
2023/07/04 02:57:16;;;;;;;;;6.00;3.67;;;;;20.03;92.05;101190.22;5018679;28;45394;-78
2023/07/04 02:59:41;;;;;;;;;6.00;3.33;;;;;19.99;92.34;101185.84;5019270;28;45331;-78
2023/07/04 03:02:07;;;;;;;;;8.33;4.00;;;;;20.00;93.18;101195.63;5018300;28;46595;-77
2023/07/04 03:04:32;;;;;;;;;3.33;3.00;;;;;20.01;92.97;101186.66;5018060;28;63643;-77
2023/07/04 03:06:57;;;;;;;;;6.33;3.67;;;;;20.02;93.31;101200.97;5018093;28;61324;-78
2023/07/04 03:09:23;;;;;;;;;5.00;3.33;;;;;19.99;93.75;101179.59;5018460;28;45688;-78
2023/07/04 03:11:48;;;;;;;;;4.33;2.67;;;;;20.01;93.75;101186.66;5017804;28;70214;-77
2023/07/04 03:14:14;;;;;;;;;3.67;3.67;;;;;19.99;94.11;101184.97;5018148;28;45290;-78
2023/07/04 03:16:39;;;;;;;;;5.00;4.00;;;;;20.00;94.84;101182.22;5018310;28;62275;-78
2023/07/04 03:19:05;;;;;;;;;3.00;3.00;;;;;19.98;94.86;101186.75;5017073;28;45324;-78
2023/07/04 03:21:30;;;;;;;;;6.00;3.00;;;;;19.98;94.82;101185.88;5018422;28;46391;-78
2023/07/04 03:23:55;;;;;;;;;7.00;4.00;;;;;19.98;94.61;101186.75;5017404;28;67208;-78
2023/07/04 03:26:21;;;;;;;;;4.00;4.00;;;;;19.96;95.63;101182.34;5016767;28;63903;-77
2023/07/04 03:28:46;;;;;;;;;5.00;3.33;;;;;19.97;95.66;101189.44;5018734;28;45485;-78
2023/07/04 03:31:11;;;;;;;;;5.33;4.00;;;;;19.94;95.97;101186.84;5017061;28;67342;-78
2023/07/04 03:33:37;;;;;;;;;4.67;2.67;;;;;19.93;95.69;101177.06;5017792;28;66748;-77
2023/07/04 03:36:02;;;;;;;;;6.00;4.00;;;;;19.93;95.53;101179.75;5017180;28;63743;-78
2023/07/04 03:38:28;;;;;;;;;5.00;3.67;;;;;19.93;96.02;101193.13;5017889;28;45259;-78
2023/07/04 03:40:53;;;;;;;;;3.00;3.00;;;;;19.91;95.99;101185.09;5018147;28;46291;-78
2023/07/04 03:43:18;;;;;;;;;6.00;4.00;;;;;19.92;96.20;101186.91;5017802;28;45397;-77
2023/07/04 03:45:45;;;;;;;;;2.00;2.00;;;;;19.91;96.08;101173.50;5018814;28;45748;-77
2023/07/04 03:48:11;;;;;;;;;2.67;2.67;;;;;19.93;95.59;101180.63;5018072;28;45502;-77
2023/07/04 03:50:37;;;;;;;;;3.00;3.00;;;;;19.93;95.97;101174.38;5017441;28;69480;-78
2023/07/04 03:53:02;;;;;;;;;4.67;2.67;;;;;19.94;96.25;101173.47;5017771;28;45589;-78
2023/07/04 03:55:27;;;;;;;;;5.00;3.67;;;;;19.92;96.28;101176.19;5018239;28;45428;-77
2023/07/04 03:57:53;;;;;;;;;4.00;4.00;;;;;19.93;95.91;101172.56;5033169;28;50940;-78
2023/07/04 04:00:18;;;;;;;;;4.67;3.33;;;;;19.93;96.36;101185.97;5016767;28;71426;-78
2023/07/04 04:02:44;;;;;;;;;4.00;3.00;;;;;19.91;96.00;101176.19;5017420;28;45308;-78
2023/07/04 04:05:09;;;;;;;;;4.67;3.00;;;;;19.90;95.47;101178.00;5017475;28;64453;-78
2023/07/04 04:07:35;;;;;;;;;4.00;3.67;;;;;19.87;95.99;101173.59;5017541;28;45359;-77
2023/07/04 04:10:00;;;;;;;;;2.67;2.67;;;;;19.85;96.33;101170.03;5017498;28;47342;-77
2023/07/04 04:12:25;;;;;;;;;5.33;2.67;;;;;19.86;96.49;101179.84;5017317;28;45351;-77
2023/07/04 04:14:51;;;;;;;;;2.67;2.00;;;;;19.85;96.79;101175.41;5017101;28;62895;-77
2023/07/04 04:17:16;;;;;;;;;3.67;3.67;;;;;19.81;96.55;101173.69;5016590;28;45536;-78
2023/07/04 04:19:41;;;;;;;;;6.00;3.00;;;;;19.81;96.55;101172.81;5016668;28;71612;-78
2023/07/04 04:22:07;;;;;;;;;4.33;2.33;;;;;19.78;96.66;101176.47;5017452;28;45404;-78
2023/07/04 04:24:32;;;;;;;;;3.67;2.33;;;;;19.77;97.05;101174.72;5016760;28;64147;-78
2023/07/04 04:27:02;;;;;;;;;5.00;2.33;;;;;19.79;97.49;101188.06;5017690;28;45410;-77
2023/07/04 04:29:28;;;;;;;;;4.33;4.00;;;;;19.77;97.85;101184.56;5017136;28;47825;-77
2023/07/04 04:31:53;;;;;;;;;5.33;4.00;;;;;19.79;97.71;101183.59;5017485;28;45528;-77
2023/07/04 04:34:21;;;;;;;;;3.67;2.33;;;;;19.79;98.10;101185.38;5015226;28;45220;-78
2023/07/04 04:36:46;;;;;;;;;4.33;2.00;;;;;19.78;97.81;101181.81;5020927;28;45466;-77
2023/07/04 04:39:12;;;;;;;;;4.00;2.00;;;;;19.81;98.41;101179.06;5023097;28;46361;-78
2023/07/04 04:41:37;;;;;;;;;2.33;2.33;;;;;19.81;98.40;101181.75;5024425;28;45406;-77
2023/07/04 04:44:04;;;;;;;;;2.67;2.67;;;;;19.79;98.67;101180.91;5017268;28;50185;-78
2023/07/04 04:46:31;;;;;;;;;2.33;1.67;;;;;19.79;98.75;101182.72;5017242;28;45606;-77
2023/07/04 04:48:58;;;;;;;;;4.67;3.00;;;;;19.79;98.82;101182.72;5017600;28;47446;-77
2023/07/04 04:51:24;;;;;;;;;3.33;3.00;;;;;19.78;99.50;101179.16;5016463;28;45548;-77
2023/07/04 04:53:49;;;;;;;;;2.33;2.33;;;;;19.81;99.37;101172.81;5032461;28;65783;-78
2023/07/04 04:56:15;;;;;;;;;2.67;2.67;;;;;19.81;99.67;101180.88;5016379;28;59975;-78
2023/07/04 04:58:43;;;;;;;;;5.00;3.00;;;;;19.82;99.85;101188.00;5016315;28;47256;-79
2023/07/04 05:01:19;;;;;;;;;5.00;2.00;;;;;19.78;99.76;101184.50;5017003;28;45415;-79
2023/07/04 05:03:45;;;;;;;;;2.67;2.67;;;;;19.81;100.00;101188.91;5017060;28;45447;-79
2023/07/04 05:06:10;;;;;;;;;7.00;3.33;;;;;19.80;100.00;101182.66;5016089;28;64129;-79
2023/07/04 05:08:36;;;;;;;;;5.33;3.33;;;;;19.80;100.00;101182.66;5016805;28;46278;-78
2023/07/04 05:11:06;;;;;;;;;7.00;3.33;;;;;19.87;100.00;101188.78;5014352;28;46104;-79
2023/07/04 05:13:32;;;;;;;;;5.67;3.67;;;;;19.84;100.00;101183.50;5142757;22;45421;-79
2023/07/04 05:15:59;;;;;;;;;6.00;4.67;;;;;19.82;100.00;101186.22;5036813;28;45219;-79
2023/07/04 05:18:24;;;;;;;;;6.00;3.67;;;;;19.81;100.00;101192.47;5036656;28;47599;-79
2023/07/04 05:20:59;;;;;;;;;6.67;4.00;;;;;19.80;100.00;101187.16;5036305;28;45313;-79
2023/07/04 05:23:25;;;;;;;;;4.33;4.33;;;;;19.83;100.00;101193.34;5036284;28;45378;-79
2023/07/04 05:26:29;;;;;;;;;2.33;2.33;;;;;19.82;100.00;101186.22;5035683;28;59210;-78
2023/07/04 05:28:56;;;;;;;;;4.67;3.00;;;;;19.81;100.00;101183.53;4993732;28;46600;-80
2023/07/04 05:31:24;;;;;;;;;4.67;3.00;;;;;19.82;100.00;101193.38;4994729;28;46054;-79
2023/07/04 05:33:53;;;;;;;;;6.67;3.00;;;;;19.83;100.00;101190.66;5014655;28;45251;-79
2023/07/04 05:36:24;;;;;;;;;4.67;3.00;;;;;19.81;100.00;101189.78;5036650;28;45366;-79
2023/07/04 05:38:51;;;;;;;;;3.00;2.33;;;;;19.79;100.00;101191.63;5035530;28;47158;-79
2023/07/04 05:41:18;;;;;;;;;5.67;3.00;;;;;19.81;100.00;101189.78;5031359;28;45363;-78
2023/07/04 05:43:44;;;;;;;;;5.00;4.00;;;;;19.82;100.00;101188.00;5033637;28;45546;-79
2023/07/04 05:46:10;;;;;;;;;4.00;2.33;;;;;19.84;100.00;101181.69;5036495;28;45241;-79
2023/07/04 05:48:36;;;;;;;;;7.00;5.00;;;;;19.87;100.00;101184.31;5036010;28;46871;-79
2023/07/04 05:51:04;;;;;;;;;5.00;3.00;;;;;19.93;100.00;101185.09;5039476;28;45402;-78
2023/07/04 05:53:32;;;;;;;;;6.00;3.67;;;;;20.01;100.00;101199.19;5040009;28;45280;-79
2023/07/04 05:56:10;;;;;;;;;7.00;2.67;;;;;20.04;100.00;101191.09;5039415;28;45370;-80
2023/07/04 05:58:36;;;;;;;;;3.67;2.00;;;;;20.09;100.00;101190.09;5026267;28;48081;-79
2023/07/04 06:01:09;;;;;;;;;3.33;3.00;;;;;20.15;100.00;101200.66;5038258;28;45773;-78
2023/07/04 06:03:35;;;;;;;;;2.67;2.00;;;;;20.18;100.00;101193.44;5039439;28;45468;-78
2023/07/04 06:06:03;;;;;;;;;4.33;3.00;;;;;20.22;100.00;101190.66;5038849;28;45484;-78
2023/07/04 06:08:28;;;;;;;;;6.33;3.00;;;;;20.22;100.00;101184.44;5033363;28;47654;-78
2023/07/04 06:11:04;;;;;;;;;4.00;2.67;;;;;20.24;100.00;101186.16;5038878;28;45122;-78
2023/07/04 06:13:30;;;;;;;;;3.00;3.00;;;;;20.26;100.00;101178.97;5039403;28;45280;-78
2023/07/04 06:15:59;;;;;;;;;4.00;3.00;;;;;20.26;100.00;101184.31;5037803;28;45699;-79
2023/07/04 06:18:25;;;;;;;;;4.00;4.00;;;;;20.24;100.00;101180.81;5038729;28;46305;-80
2023/07/04 06:20:51;;;;;;;;;5.67;5.67;;;;;20.19;100.00;101179.13;5038088;28;45290;-81
2023/07/04 06:23:18;;;;;;;;;6.33;3.67;;;;;20.15;100.00;101170.28;5037865;28;45484;-81
2023/07/04 06:25:43;;;;;;;;;5.33;3.67;;;;;20.10;100.00;101166.84;5036114;28;45869;-81
2023/07/04 06:28:08;;;;;;;;;5.67;3.00;;;;;20.08;100.00;101174.00;5037521;28;73457;-77
2023/07/04 06:30:38;;;;;;;;;11.00;3.67;;;;;20.07;100.00;101186.53;5036004;28;45449;-78
2023/07/04 06:33:03;;;;;;;;;7.33;3.67;;;;;20.08;100.00;101185.63;5034734;28;45613;-78
2023/07/04 06:35:30;;;;;;;;;4.00;4.00;;;;;20.08;100.00;101174.91;5037024;28;62773;-77
2023/07/04 06:37:55;;;;;;;;;3.33;3.00;;;;;20.19;100.00;101179.13;5042639;28;46745;-79
2023/07/04 06:40:21;;;;;;;;;3.33;3.00;;;;;20.25;100.00;101179.88;5038548;28;45307;-80
2023/07/04 06:42:46;;;;;;;;;3.00;3.00;;;;;20.29;100.00;101181.56;5035617;28;45356;-82
2023/07/04 06:45:11;;;;;;;;;6.00;3.00;;;;;20.29;100.00;101181.56;5035763;28;45528;-83
2023/07/04 06:47:37;;;;;;;;;7.00;3.67;;;;;20.29;100.00;101178.88;5038024;28;46441;-81
2023/07/04 06:50:02;;;;;;;;;9.00;5.33;;;;;20.38;100.00;101189.38;5037273;28;62572;-77
2023/07/04 06:52:29;;;;;;;;;4.33;4.00;;;;;20.46;100.00;101189.25;5037589;28;45454;-81
2023/07/04 06:54:55;;;;;;;;;3.00;3.00;;;;;20.57;100.00;101189.00;5036024;28;45646;-80
2023/07/04 06:57:21;;;;;;;;;6.00;3.00;;;;;20.63;100.00;101197.78;5037796;28;46717;-82
2023/07/04 06:59:50;;;;;;;;;5.67;2.67;;;;;20.65;100.00;101201.28;5031145;28;45232;-82
2023/07/04 07:02:15;;;;;;;;;5.00;3.67;;;;;20.73;100.00;101205.59;5032544;28;45465;-80
2023/07/04 07:04:41;;;;;;;;;7.00;4.33;;;;;20.77;100.00;101205.47;5035045;28;45528;-79
2023/07/04 07:07:09;;;;;;;;;8.00;3.33;;;;;20.80;100.00;101208.06;5033790;28;46846;-80
2023/07/04 07:09:40;;;;;;;;;5.00;3.67;;;;;20.83;100.00;101205.34;5033416;28;45435;-79
2023/07/04 07:12:06;;;;;;;;;8.00;3.00;;;;;20.88;100.00;101206.09;5030806;28;47010;-79
2023/07/04 07:14:32;;;;;;;;;3.33;2.67;;;;;20.96;100.00;101208.56;5034478;28;45591;-77
2023/07/04 07:16:57;;;;;;;;;4.67;4.00;;;;;21.02;100.00;101203.03;5036716;28;46372;-78
2023/07/04 07:19:23;;;;;;;;;7.00;4.00;;;;;21.05;100.00;101205.66;5034581;28;65997;-77
2023/07/04 07:21:49;;;;;;;;;6.33;4.67;;;;;21.05;100.00;101202.97;5035783;28;45372;-81
2023/07/04 07:24:14;;;;;;;;;4.00;4.00;;;;;20.99;100.00;101202.25;5036855;28;45335;-82
2023/07/04 07:26:39;;;;;;;;;8.67;5.67;;;;;20.91;100.00;101206.00;5037083;28;70869;-81
2023/07/04 07:29:05;;;;;;;;;5.67;5.67;;;;;20.86;100.00;101198.97;5033358;28;69577;-82
2023/07/04 07:31:30;;;;;;;;;6.33;4.00;;;;;20.85;100.00;101200.78;5035795;28;61782;-81
2023/07/04 07:33:55;;;;;;;;;5.00;4.00;;;;;20.82;100.00;101199.97;5032407;28;45214;-83
2023/07/04 07:36:30;;;;;;;;;5.67;5.33;;;;;20.82;100.00;101198.16;5036966;28;61352;-80
2023/07/04 07:38:55;;;;;;;;;5.00;3.00;;;;;20.82;100.00;101198.16;5035524;28;45485;-78
2023/07/04 07:41:26;;;;;;;;;6.00;3.00;;;;;20.85;100.00;101190.06;5033964;28;45508;-79
2023/07/04 07:43:52;;;;;;;;;5.00;5.00;;;;;20.89;100.00;101183.69;5037388;28;45240;-79
2023/07/04 07:46:18;;;;;;;;;4.33;3.33;;;;;20.99;100.00;101191.50;5033301;28;71713;-78
2023/07/04 07:48:44;;;;;;;;;7.00;3.67;;;;;21.07;100.00;101190.38;5036275;28;45302;-79
2023/07/04 07:51:12;;;;;;;;;5.33;4.00;;;;;21.16;100.00;101194.63;5036761;28;45466;-79
2023/07/04 07:53:39;;;;;;;;;4.00;4.00;;;;;21.21;100.00;101181.06;5037135;28;45627;-79
2023/07/04 07:56:05;;;;;;;;;3.00;2.00;;;;;21.25;99.71;101178.22;5035474;28;46673;-79
2023/07/04 07:58:31;;;;;;;;;2.00;2.00;;;;;21.33;98.85;101168.22;5036501;28;45501;-79
2023/07/04 08:00:56;;;;;;;;;2.00;2.00;;;;;21.42;95.89;101169.75;5035963;28;45405;-79
2023/07/04 08:03:22;;;;;;;;;4.00;2.00;;;;;21.49;94.29;101170.47;5030604;28;61880;-78
2023/07/04 08:05:47;;;;;;;;;3.67;2.33;;;;;21.50;95.46;101166.84;5036634;28;46706;-79
2023/07/04 08:08:13;;;;;;;;;4.00;2.00;;;;;21.54;94.58;101166.72;5029740;28;45456;-80
2023/07/04 08:10:39;;;;;;;;;2.00;2.00;;;;;21.59;94.65;101163.91;5036570;28;45471;-79
2023/07/04 08:13:05;;;;;;;;;2.00;2.00;;;;;21.63;93.41;101160.19;5037245;28;45502;-79
2023/07/04 08:15:31;;;;;;;;;5.00;2.00;;;;;21.72;94.34;101162.59;5030426;28;47897;-79
2023/07/04 08:17:57;;;;;;;;;8.00;3.33;;;;;21.82;93.73;101156.03;5036712;28;69457;-79
2023/07/04 08:20:23;;;;;;;;;4.00;2.00;;;;;21.91;93.86;101153.06;5037316;28;45364;-80
2023/07/04 08:22:48;;;;;;;;;4.00;3.00;;;;;22.05;93.75;101158.03;5037655;28;45524;-79
2023/07/04 08:25:14;;;;;;;;;4.00;4.00;;;;;22.13;93.42;101166.75;5036004;28;46916;-79
2023/07/04 08:27:40;;;;;;;;;6.00;4.67;;;;;22.18;92.47;101153.16;5037373;28;45779;-80
2023/07/04 08:30:05;;;;;;;;;7.00;4.00;;;;;22.20;93.25;101151.28;5028377;28;45350;-79
2023/07/04 08:32:33;;;;;;;;;3.00;3.00;;;;;22.23;92.54;101151.19;5024865;28;45466;-78
2023/07/04 08:34:59;;;;;;;;;3.67;3.00;;;;;22.24;93.07;101158.34;5036832;28;46893;-79
2023/07/04 08:37:24;;;;;;;;;3.00;3.00;;;;;22.28;91.31;101148.38;5037340;28;45441;-79
2023/07/04 08:39:50;;;;;;;;;3.67;3.67;;;;;22.27;91.58;101152.00;5037081;28;45541;-78
2023/07/04 08:42:17;;;;;;;;;5.67;3.00;;;;;22.32;91.05;101150.00;5036917;28;45248;-79
2023/07/04 08:44:45;;;;;;;;;6.00;4.67;;;;;22.40;90.21;101150.66;5037054;28;46694;-79
2023/07/04 08:47:12;;;;;;;;;6.00;3.33;;;;;22.49;90.03;101147.66;5036978;28;45479;-79
2023/07/04 08:49:41;;;;;;;;;2.00;2.00;;;;;22.63;90.98;101134.59;5036223;28;45361;-78
2023/07/04 08:52:17;;;;;;;;;2.00;1.00;;;;;22.81;90.56;101141.19;5036137;28;45518;-79
2023/07/04 08:54:43;;;;;;;;;3.33;3.00;;;;;23.02;89.99;101138.69;5037130;28;47442;-79
2023/07/04 08:57:17;;;;;;;;;4.00;2.67;;;;;23.21;89.60;101140.66;5036158;28;69177;-79
2023/07/04 08:59:44;;;;;;;;;4.33;3.33;;;;;23.35;87.99;101142.84;5037065;28;45546;-79
2023/07/04 09:02:46;;;;;;;;;4.00;2.33;;;;;23.44;87.72;101138.94;5035040;28;45550;-80
2023/07/04 09:05:34;;;;;;;;;5.00;4.00;;;;;23.50;86.38;101139.59;5030039;28;47508;-80
2023/07/04 09:08:09;;;;;;;;;2.33;2.33;;;;;23.56;85.97;101127.69;5032620;28;45550;-79
2023/07/04 09:10:47;;;;;;;;;2.00;2.00;;;;;23.63;85.48;101125.66;5035451;28;45296;-79
2023/07/04 09:13:27;;;;;;;;;4.00;4.00;;;;;23.68;83.50;101115.59;5034755;28;45594;-79
2023/07/04 09:15:53;;;;;;;;;1.33;1.33;;;;;23.78;83.90;101130.47;5036619;28;47371;-79
2023/07/04 09:18:21;;;;;;;;;3.00;3.00;;;;;23.87;81.86;101126.53;5036339;28;45370;-80
2023/07/04 09:20:58;;;;;;;;;4.00;2.67;;;;;23.94;81.53;101128.06;5036718;28;45296;-79
2023/07/04 09:23:24;;;;;;;;;5.67;2.00;;;;;23.97;80.72;101134.22;5034911;28;45469;-79
2023/07/04 09:25:53;;;;;;;;;4.00;3.00;;;;;23.96;81.88;101118.06;5035433;28;46414;-79
2023/07/04 09:28:19;;;;;;;;;4.00;2.00;;;;;23.94;81.45;101106.47;5035411;28;45449;-79
2023/07/04 09:30:44;;;;;;;;;3.00;3.00;;;;;24.00;81.58;101114.31;5033246;28;49602;-79
2023/07/04 09:33:10;;;;;;;;;4.33;2.67;;;;;24.11;82.63;101113.88;5036627;28;45522;-79
2023/07/04 09:35:36;;;;;;;;;5.67;2.67;;;;;24.31;83.21;101119.34;5035047;28;47299;-79
2023/07/04 09:38:02;;;;;;;;;7.00;4.00;;;;;24.47;81.55;101116.91;5035915;28;45268;-79
2023/07/04 09:40:48;;;;;;;;;2.00;2.00;;;;;24.55;80.18;101125.53;5036307;28;45470;-79
2023/07/04 09:43:28;;;;;;;;;6.00;4.00;;;;;24.48;78.72;101114.13;5036532;28;45333;-79
2023/07/04 09:46:30;;;;;;;;;2.00;2.00;;;;;24.36;77.93;101117.38;5036119;28;47387;-80
2023/07/04 09:49:25;;;;;;;;;3.67;3.67;;;;;24.29;78.53;101118.53;4976775;28;45232;-79
2023/07/04 09:52:01;;;;;;;;;5.00;3.00;;;;;24.30;79.51;101114.88;5030175;28;45384;-79
2023/07/04 09:54:27;;;;;;;;;4.00;2.00;;;;;24.40;79.90;101118.13;5035856;28;45216;-79
2023/07/04 09:56:52;;;;;;;;;4.33;3.67;;;;;24.49;79.22;101109.63;5035400;28;46494;-80
2023/07/04 09:59:22;;;;;;;;;5.00;4.67;;;;;24.61;78.96;101111.81;5036171;28;45331;-79
2023/07/04 10:01:50;;;;;;;;;40.67;33.33;;;;;24.75;78.56;101100.41;5035972;28;45312;-79
2023/07/04 10:04:28;;;;;;;;;4.67;4.00;;;;;24.88;77.80;101090.81;5035766;28;45558;-79
2023/07/04 10:06:57;;;;;;;;;6.67;5.33;;;;;24.94;78.27;101095.94;5032208;28;46701;-80
2023/07/04 10:09:23;;;;;;;;;5.67;4.33;;;;;25.05;78.01;101093.66;5036104;28;45478;-79
2023/07/04 10:11:50;;;;;;;;;8.33;4.67;;;;;25.16;78.45;101086.91;5035346;28;45232;-79
2023/07/04 10:14:17;;;;;;;;;3.33;3.33;;;;;25.23;77.41;101082.97;5033869;28;45555;-79
2023/07/04 10:16:50;;;;;;;;;8.33;6.33;;;;;25.27;77.29;101092.69;5034102;28;46636;-79
2023/07/04 10:19:19;;;;;;;;;3.67;3.67;;;;;25.26;76.83;101081.00;5034670;28;45201;-80
2023/07/04 10:21:48;;;;;;;;;37.00;32.75;;;;;25.28;76.67;101078.22;5034216;28;45335;-79
2023/07/04 10:24:24;;;;;;;;;35.50;32.00;;;;;25.36;76.55;101081.47;5034708;28;45476;-80
2023/07/04 10:27:02;;;;;;;;;68.00;54.00;;;;;25.45;76.97;101080.16;5034140;28;47305;-79
2023/07/04 10:29:36;;;;;;;;;5.33;5.00;;;;;25.58;76.61;101073.22;5029722;28;45391;-80
2023/07/04 10:32:08;;;;;;;;;6.33;5.00;;;;;25.70;75.78;101085.28;5031529;28;45524;-79
2023/07/04 10:34:34;;;;;;;;;5.00;3.00;;;;;25.78;75.71;101073.19;5033709;28;45514;-79
2023/07/04 10:37:00;;;;;;;;;6.67;5.00;;;;;25.95;76.51;101075.06;5035648;28;46593;-80
2023/07/04 10:39:26;;;;;;;;;4.00;4.00;;;;;26.15;76.52;101059.66;5036288;28;62039;-79
2023/07/04 10:42:09;;;;;;;;;7.67;4.67;;;;;26.35;76.47;101070.34;5037085;28;65508;-80
2023/07/04 10:44:37;;;;;;;;;5.00;3.67;;;;;26.48;74.74;101057.97;5037048;28;45646;-79
2023/07/04 10:47:05;;;;;;;;;5.33;4.00;;;;;26.63;74.12;101057.19;5037504;28;46870;-80
2023/07/04 10:49:42;;;;;;;;;4.33;4.33;;;;;26.84;75.03;101046.16;5036064;28;45573;-79
2023/07/04 10:52:14;;;;;;;;;3.67;3.67;;;;;27.11;74.29;101057.38;5036630;28;45485;-80
2023/07/04 10:54:39;;;;;;;;;5.00;3.67;;;;;27.28;72.33;101059.19;5036558;28;45366;-80
2023/07/04 10:57:13;;;;;;;;;5.33;3.33;;;;;27.33;71.24;101062.53;5037130;28;70589;-80
2023/07/04 10:59:41;;;;;;;;;5.00;5.00;;;;;27.33;71.50;101043.53;5036384;28;45380;-79
2023/07/04 11:02:22;;;;;;;;;5.00;4.00;;;;;27.35;71.07;101047.91;5036704;28;45307;-79
2023/07/04 11:04:48;;;;;;;;;5.67;3.33;;;;;27.28;70.18;101048.34;5037431;28;45402;-80
2023/07/04 11:07:25;;;;;;;;;5.00;3.00;;;;;27.22;70.98;101036.00;5028838;28;72702;-79
2023/07/04 11:09:57;;;;;;;;;7.00;5.67;;;;;27.22;71.31;101033.28;5036170;28;45300;-79
2023/07/04 11:12:26;;;;;;;;;5.33;3.33;;;;;27.29;71.56;101026.56;4996359;28;1139960;-79
2023/07/04 11:14:58;;;;;;;;;7.67;4.67;;;;;27.43;71.60;101033.91;5036895;28;45490;-79
2023/07/04 11:17:24;;;;;;;;;5.33;4.67;;;;;27.54;71.03;101033.28;5038823;28;47670;-79
2023/07/04 11:19:55;;;;;;;;;4.67;4.00;;;;;27.63;70.80;101017.38;5037502;28;70580;-80
2023/07/04 11:22:37;;;;;;;;;5.00;5.00;;;;;27.67;71.14;101016.25;5038466;28;45517;-81
2023/07/04 11:25:25;;;;;;;;;5.67;5.00;;;;;27.75;70.08;101014.94;5038311;28;45619;-79
2023/07/04 11:28:12;;;;;;;;;4.00;4.00;;;;;27.72;68.66;101017.84;5038264;28;47422;-79